Time;durP1;ratioP1;P1;durP2;ratioP2;P2;SDS_P1;SDS_P2;PMS_P1;PMS_P2;Temp;Humidity;BMP_temperature;BMP_pressure;BME280_temperature;BME280_humidity;BME280_pressure;Samples;Min_cycle;Max_cycle;Signal;HPM_P1;HPM_P2
2022/10/30 00:00:26;;;;;;;;;;;16.80;99.90;;;;;;5075979;28;19908;-79
2022/10/30 00:02:52;;;;;;;;;;;16.70;99.90;;;;;;5094126;28;20338;-79
2022/10/30 00:05:19;;;;;;;;;;;16.70;99.90;;;;;;5094083;28;19919;-79
2022/10/30 00:07:45;;;;;;;;;;;16.70;99.90;;;;;;5093988;28;19918;-78
2022/10/30 00:10:11;;;;;;;;;;;16.80;99.90;;;;;;5094319;28;19909;-78
2022/10/30 00:12:36;;;;;;;;;;;16.80;99.90;;;;;;5093884;28;19957;-79
2022/10/30 00:15:02;;;;;;;;;;;16.70;99.90;;;;;;5094084;28;19908;-79
2022/10/30 00:17:28;;;;;;;;;;;16.80;99.90;;;;;;5093927;28;19916;-79
2022/10/30 00:19:53;;;;;;;;;;;16.80;99.90;;;;;;5093855;28;20022;-79
2022/10/30 00:22:19;;;;;;;;;;;16.80;99.90;;;;;;5093751;28;19908;-79
2022/10/30 00:24:45;;;;;;;;;;;16.80;99.90;;;;;;5093635;28;20341;-79
2022/10/30 00:27:10;;;;;;;;;;;16.70;99.90;;;;;;5093769;28;19908;-79
2022/10/30 00:29:36;;;;;;;;;;;16.70;99.90;;;;;;5093715;28;19912;-79
2022/10/30 00:32:01;;;;;;;;;;;16.70;99.90;;;;;;5093727;28;19986;-79
2022/10/30 00:34:27;;;;;;;;;;;16.60;99.90;;;;;;5093628;28;19908;-79
2022/10/30 00:36:52;;;;;;;;;;;16.70;99.90;;;;;;5093644;28;19909;-79
2022/10/30 00:39:18;;;;;;;;;;;16.80;99.90;;;;;;5093597;28;20375;-80
2022/10/30 00:41:43;;;;;;;;;;;16.70;99.90;;;;;;5093601;28;19912;-79
2022/10/30 00:44:28;;;;;;;;;;;16.70;99.90;;;;;;5094020;28;19915;-79
2022/10/30 00:46:53;;;;;;;;;;;16.80;99.90;;;;;;5093667;28;19912;-78
2022/10/30 00:49:19;;;;;;;;;;;16.70;99.90;;;;;;5093566;28;20389;-79
2022/10/30 00:51:47;;;;;;;;;;;16.80;99.90;;;;;;5093480;28;19915;-80
2022/10/30 00:54:14;;;;;;;;;;;16.90;99.90;;;;;;5094056;28;19908;-80
2022/10/30 00:56:40;;;;;;;;;;;16.80;99.90;;;;;;5093656;28;20322;-78
2022/10/30 00:59:07;;;;;;;;;;;16.90;99.90;;;;;;5093414;28;19908;-79
2022/10/30 01:01:35;;;;;;;;;;;16.90;99.90;;;;;;5093459;28;20007;-79
2022/10/30 01:04:02;;;;;;;;;;;17.00;99.90;;;;;;5093567;28;20368;-79
2022/10/30 01:06:28;;;;;;;;;;;17.00;99.90;;;;;;5093324;28;19912;-78
2022/10/30 01:08:54;;;;;;;;;;;16.90;99.90;;;;;;5093389;28;20371;-80
2022/10/30 01:11:20;;;;;;;;;;;16.80;99.90;;;;;;5092942;28;19908;-79
2022/10/30 01:13:47;;;;;;;;;;;16.70;99.90;;;;;;5093440;28;19951;-80
2022/10/30 01:16:22;;;;;;;;;;;16.70;99.90;;;;;;5093244;28;19974;-79
2022/10/30 01:18:47;;;;;;;;;;;16.80;99.90;;;;;;5093264;28;19908;-79
2022/10/30 01:21:29;;;;;;;;;;;16.80;99.90;;;;;;5093552;28;19957;-80
2022/10/30 01:24:05;;;;;;;;;;;16.70;99.90;;;;;;5093154;28;20265;-79
2022/10/30 01:26:39;;;;;;;;;;;16.70;99.90;;;;;;5093215;28;19980;-79
2022/10/30 01:29:12;;;;;;;;;;;16.70;99.90;;;;;;5093133;28;19908;-79
2022/10/30 01:31:56;;;;;;;;;;;16.60;99.90;;;;;;5093472;28;19915;-79
2022/10/30 01:34:28;;;;;;;;;;;16.60;99.90;;;;;;5093081;28;20403;-80
2022/10/30 01:37:00;;;;;;;;;;;16.70;99.90;;;;;;5093123;28;19908;-79
2022/10/30 01:39:27;;;;;;;;;;;16.70;99.90;;;;;;5093001;28;19908;-79
2022/10/30 01:41:53;;;;;;;;;;;16.70;99.90;;;;;;5093159;28;19915;-79
2022/10/30 01:44:24;;;;;;;;;;;16.70;99.90;;;;;;5093019;28;19909;-80
2022/10/30 01:47:08;;;;;;;;;;;16.70;99.90;;;;;;5092971;28;19912;-78
2022/10/30 01:49:48;;;;;;;;;;;16.70;99.90;;;;;;5094665;28;19978;-80
2022/10/30 01:52:33;;;;;;;;;;;16.90;99.90;;;;;;5096583;28;20022;-78
2022/10/30 01:55:19;;;;;;;;;;;16.90;99.90;;;;;;5097010;28;19916;-80
2022/10/30 01:57:48;;;;;;;;;;;16.90;99.90;;;;;;5055148;28;20024;-78
2022/10/30 02:00:14;;;;;;;;;;;16.80;99.90;;;;;;5096424;28;19976;-80
2022/10/30 02:02:41;;;;;;;;;;;16.70;99.90;;;;;;5096312;28;19915;-79
2022/10/30 02:05:08;;;;;;;;;;;16.70;99.90;;;;;;5096244;28;19912;-79
2022/10/30 02:07:34;;;;;;;;;;;16.70;99.90;;;;;;5096294;28;19908;-78
2022/10/30 02:10:00;;;;;;;;;;;16.70;99.90;;;;;;5078015;28;19915;-80
2022/10/30 02:12:26;;;;;;;;;;;16.70;99.90;;;;;;5096292;28;19908;-79
2022/10/30 02:14:55;;;;;;;;;;;16.70;99.90;;;;;;5096114;28;19908;-80
2022/10/30 02:17:20;;;;;;;;;;;16.60;99.90;;;;;;5096133;28;19938;-79
2022/10/30 02:19:46;;;;;;;;;;;16.60;99.90;;;;;;5096223;28;19914;-78
2022/10/30 02:22:11;;;;;;;;;;;16.30;99.90;;;;;;5095977;28;19908;-79
2022/10/30 02:24:37;;;;;;;;;;;16.30;99.90;;;;;;5096086;28;20003;-78
2022/10/30 02:27:03;;;;;;;;;;;16.20;99.90;;;;;;5096202;28;19912;-80
2022/10/30 02:29:29;;;;;;;;;;;16.20;99.90;;;;;;5096005;28;19931;-80
2022/10/30 02:31:54;;;;;;;;;;;16.10;99.90;;;;;;5096013;28;19908;-78
2022/10/30 02:34:20;;;;;;;;;;;16.20;99.90;;;;;;5095801;28;20287;-79
2022/10/30 02:36:46;;;;;;;;;;;16.10;99.90;;;;;;5095941;28;19915;-78
2022/10/30 02:39:11;;;;;;;;;;;15.90;99.90;;;;;;5077262;28;19915;-79
2022/10/30 02:41:37;;;;;;;;;;;15.90;99.90;;;;;;5095635;28;19908;-80
2022/10/30 02:44:03;;;;;;;;;;;15.80;99.90;;;;;;5095678;28;19908;-79
2022/10/30 02:46:28;;;;;;;;;;;15.60;99.90;;;;;;5095436;28;19912;-78
2022/10/30 02:48:54;;;;;;;;;;;15.60;99.90;;;;;;5095869;28;19908;-79
2022/10/30 02:51:20;;;;;;;;;;;15.60;99.90;;;;;;5095419;28;20401;-78
2022/10/30 02:53:46;;;;;;;;;;;15.50;99.90;;;;;;5096006;28;19915;-77
2022/10/30 02:56:12;;;;;;;;;;;15.40;99.90;;;;;;5095331;28;20367;-78
2022/10/30 02:58:38;;;;;;;;;;;15.40;99.90;;;;;;5095504;28;20019;-78
2022/10/30 03:01:05;;;;;;;;;;;15.20;99.90;;;;;;5095381;28;20419;-77
2022/10/30 03:03:31;;;;;;;;;;;15.00;99.90;;;;;;5095209;28;19908;-76
2022/10/30 03:05:58;;;;;;;;;;;15.00;99.90;;;;;;5095159;28;19919;-78
2022/10/30 03:08:24;;;;;;;;;;;14.80;99.90;;;;;;5095178;28;19908;-77
2022/10/30 03:10:49;;;;;;;;;;;14.70;99.90;;;;;;5095035;28;19912;-77
2022/10/30 03:13:15;;;;;;;;;;;14.70;99.90;;;;;;5095394;28;19909;-77
2022/10/30 03:15:41;;;;;;;;;;;14.70;99.90;;;;;;5095129;28;19960;-75
2022/10/30 03:18:06;;;;;;;;;;;14.50;99.90;;;;;;5095021;28;19916;-76
2022/10/30 03:20:32;;;;;;;;;;;14.50;99.90;;;;;;5094941;28;19909;-74
2022/10/30 03:22:57;;;;;;;;;;;14.30;99.90;;;;;;5094912;28;19908;-76
2022/10/30 03:25:23;;;;;;;;;;;14.30;99.90;;;;;;5094451;28;20392;-76
2022/10/30 03:27:49;;;;;;;;;;;14.20;99.90;;;;;;5094993;28;20397;-77
2022/10/30 03:30:14;;;;;;;;;;;14.20;99.90;;;;;;5094920;28;19915;-76
2022/10/30 03:32:40;;;;;;;;;;;14.10;99.90;;;;;;5094720;28;20007;-76
2022/10/30 03:35:06;;;;;;;;;;;14.10;99.90;;;;;;5094646;28;19987;-76
2022/10/30 03:37:31;;;;;;;;;;;14.20;99.90;;;;;;5094888;28;19939;-75
2022/10/30 03:39:57;;;;;;;;;;;14.00;99.90;;;;;;5095182;28;19946;-76
2022/10/30 03:42:22;;;;;;;;;;;14.00;99.90;;;;;;5094568;28;20283;-78
2022/10/30 03:44:48;;;;;;;;;;;14.00;99.90;;;;;;5095000;28;19957;-77
2022/10/30 03:47:13;;;;;;;;;;;14.20;99.90;;;;;;5094455;28;19939;-78
2022/10/30 03:49:39;;;;;;;;;;;14.10;99.90;;;;;;5076264;28;19912;-77
2022/10/30 03:52:04;;;;;;;;;;;13.90;99.90;;;;;;5094372;28;19970;-77
2022/10/30 03:54:30;;;;;;;;;;;14.00;99.90;;;;;;5076718;28;19915;-75
2022/10/30 03:56:55;;;;;;;;;;;14.00;99.90;;;;;;5094588;28;19908;-76
2022/10/30 03:59:21;;;;;;;;;;;13.90;99.90;;;;;;5094252;28;20348;-77
2022/10/30 04:01:46;;;;;;;;;;;13.90;99.90;;;;;;5094185;28;20280;-78
2022/10/30 04:04:12;;;;;;;;;;;13.80;99.90;;;;;;5094182;28;19999;-78
2022/10/30 04:06:38;;;;;;;;;;;13.70;99.90;;;;;;5094394;28;19920;-77
2022/10/30 04:09:04;;;;;;;;;;;13.70;99.90;;;;;;5094223;28;20253;-77
2022/10/30 04:11:29;;;;;;;;;;;13.70;99.90;;;;;;5093523;28;19916;-77
2022/10/30 04:13:55;;;;;;;;;;;13.70;99.90;;;;;;5094023;28;20284;-78
2022/10/30 04:16:20;;;;;;;;;;;13.70;99.90;;;;;;5075880;28;19955;-78
2022/10/30 04:18:46;;;;;;;;;;;13.70;99.90;;;;;;5094262;28;19953;-76
2022/10/30 04:21:11;;;;;;;;;;;13.60;99.90;;;;;;5093889;28;19908;-77
2022/10/30 04:23:37;;;;;;;;;;;13.70;99.90;;;;;;5093650;28;19915;-77
2022/10/30 04:26:02;;;;;;;;;;;13.70;99.90;;;;;;5075388;28;20273;-77
2022/10/30 04:28:28;;;;;;;;;;;13.70;99.90;;;;;;5093844;28;19909;-76
2022/10/30 04:30:55;;;;;;;;;;;13.70;99.90;;;;;;5093831;28;19909;-77
2022/10/30 04:33:20;;;;;;;;;;;13.70;99.90;;;;;;5093795;28;20010;-78
2022/10/30 04:35:46;;;;;;;;;;;13.70;99.90;;;;;;5094218;28;19999;-76
2022/10/30 04:38:12;;;;;;;;;;;13.80;99.90;;;;;;5075690;28;19908;-77
2022/10/30 04:40:39;;;;;;;;;;;13.90;99.90;;;;;;5093821;28;20027;-76
2022/10/30 04:43:06;;;;;;;;;;;13.90;99.90;;;;;;5093700;28;19994;-75
2022/10/30 04:45:31;;;;;;;;;;;13.90;99.90;;;;;;5093601;28;19962;-76
2022/10/30 04:48:04;;;;;;;;;;;13.90;99.90;;;;;;5093867;28;20005;-77
2022/10/30 04:50:30;;;;;;;;;;;13.90;99.90;;;;;;5093743;28;19919;-75
2022/10/30 04:53:19;;;;;;;;;;;13.90;99.90;;;;;;5093617;28;20280;-76
2022/10/30 04:55:45;;;;;;;;;;;14.00;99.90;;;;;;5066250;28;20014;-76
2022/10/30 04:58:11;;;;;;;;;;;13.90;99.90;;;;;;5075577;28;19991;-75
2022/10/30 05:00:37;;;;;;;;;;;13.90;99.90;;;;;;5093664;28;20368;-76
2022/10/30 05:03:02;;;;;;;;;;;14.00;99.90;;;;;;5093523;28;19908;-76
2022/10/30 05:05:29;;;;;;;;;;;13.90;99.90;;;;;;5093434;28;19916;-77
2022/10/30 05:07:54;;;;;;;;;;;14.00;99.90;;;;;;5093467;28;20021;-76
2022/10/30 05:10:20;;;;;;;;;;;13.90;99.90;;;;;;5093407;28;19908;-77
2022/10/30 05:12:46;;;;;;;;;;;13.90;99.90;;;;;;5093448;28;19998;-77
2022/10/30 05:15:12;;;;;;;;;;;14.00;99.90;;;;;;5093351;28;20379;-77
2022/10/30 05:17:38;;;;;;;;;;;14.00;99.90;;;;;;5093696;28;19948;-76
2022/10/30 05:20:04;;;;;;;;;;;14.00;99.90;;;;;;5093366;28;20367;-78
2022/10/30 05:22:30;;;;;;;;;;;14.00;99.90;;;;;;5093183;28;19908;-77
2022/10/30 05:24:56;;;;;;;;;;;14.00;99.90;;;;;;5095792;28;20284;-77
2022/10/30 05:27:21;;;;;;;;;;;14.00;99.90;;;;;;5097393;28;19915;-77
2022/10/30 05:29:47;;;;;;;;;;;13.90;99.90;;;;;;5078848;28;19953;-77
2022/10/30 05:32:12;;;;;;;;;;;13.90;99.90;;;;;;5097083;28;19915;-76
2022/10/30 05:34:38;;;;;;;;;;;13.80;99.90;;;;;;5097017;28;19987;-76
2022/10/30 05:37:03;;;;;;;;;;;14.00;99.90;;;;;;5097417;28;19915;-77
2022/10/30 05:39:29;;;;;;;;;;;14.00;99.90;;;;;;5096872;28;20291;-76
2022/10/30 05:41:54;;;;;;;;;;;14.00;99.90;;;;;;5097098;28;19908;-77
2022/10/30 05:44:20;;;;;;;;;;;14.10;99.90;;;;;;5096894;28;19944;-76
2022/10/30 05:46:45;;;;;;;;;;;14.00;99.90;;;;;;5096700;28;19912;-76
2022/10/30 05:49:11;;;;;;;;;;;13.90;99.90;;;;;;5096701;28;19909;-78
2022/10/30 05:51:37;;;;;;;;;;;13.90;99.90;;;;;;5097000;28;20007;-76
2022/10/30 05:54:02;;;;;;;;;;;13.90;99.90;;;;;;5097399;28;19953;-77
2022/10/30 05:56:28;;;;;;;;;;;13.90;99.90;;;;;;5096567;28;19908;-76
2022/10/30 05:58:53;;;;;;;;;;;13.80;99.90;;;;;;5096769;28;19908;-77
2022/10/30 06:01:19;;;;;;;;;;;13.90;99.90;;;;;;5078275;28;20288;-77
2022/10/30 06:03:44;;;;;;;;;;;13.80;99.90;;;;;;5096686;28;19966;-76
2022/10/30 06:06:10;;;;;;;;;;;13.80;99.90;;;;;;5096341;28;19912;-77
2022/10/30 06:08:36;;;;;;;;;;;13.80;99.90;;;;;;5096285;28;19908;-77
2022/10/30 06:11:02;;;;;;;;;;;13.80;99.90;;;;;;5096289;28;19981;-77
2022/10/30 06:13:27;;;;;;;;;;;13.80;99.90;;;;;;5096283;28;20283;-77
2022/10/30 06:15:54;;;;;;;;;;;13.90;99.90;;;;;;5096218;28;19908;-77
2022/10/30 06:18:19;;;;;;;;;;;13.80;99.90;;;;;;5096226;28;20002;-77
2022/10/30 06:20:45;;;;;;;;;;;13.80;99.90;;;;;;5096089;28;19977;-76
2022/10/30 06:23:10;;;;;;;;;;;13.80;99.90;;;;;;5096137;28;20384;-76
2022/10/30 06:25:36;;;;;;;;;;;13.80;99.90;;;;;;5095568;28;20019;-76
2022/10/30 06:28:02;;;;;;;;;;;13.80;99.90;;;;;;5096254;28;19954;-77
2022/10/30 06:30:28;;;;;;;;;;;13.70;99.90;;;;;;5095960;28;19908;-76
2022/10/30 06:32:57;;;;;;;;;;;13.70;99.90;;;;;;5095892;28;19908;-77
2022/10/30 06:35:23;;;;;;;;;;;13.60;99.90;;;;;;5095467;28;20283;-77
2022/10/30 06:37:48;;;;;;;;;;;13.50;99.90;;;;;;5096069;28;19908;-77
2022/10/30 06:40:15;;;;;;;;;;;13.50;99.90;;;;;;5095915;28;19908;-77
2022/10/30 06:42:44;;;;;;;;;;;13.60;99.90;;;;;;5095693;28;19915;-76
2022/10/30 06:45:10;;;;;;;;;;;13.50;99.90;;;;;;5095556;28;19912;-77
2022/10/30 06:47:35;;;;;;;;;;;13.40;99.90;;;;;;5095808;28;19908;-77
2022/10/30 06:50:01;;;;;;;;;;;13.50;99.90;;;;;;5095601;28;19915;-76
2022/10/30 06:52:27;;;;;;;;;;;13.60;99.90;;;;;;5095659;28;19973;-77
2022/10/30 06:54:52;;;;;;;;;;;13.60;99.90;;;;;;5095996;28;19916;-76
2022/10/30 06:57:18;;;;;;;;;;;13.60;99.90;;;;;;5095418;28;20383;-77
2022/10/30 06:59:44;;;;;;;;;;;13.70;99.90;;;;;;5095914;28;19912;-76
2022/10/30 07:02:09;;;;;;;;;;;13.60;99.90;;;;;;5095419;28;20002;-77
2022/10/30 07:04:35;;;;;;;;;;;13.50;99.90;;;;;;5095318;28;19912;-74
2022/10/30 07:07:00;;;;;;;;;;;13.50;99.90;;;;;;5095162;28;19912;-77
2022/10/30 07:09:26;;;;;;;;;;;13.50;99.90;;;;;;5095161;28;20261;-76
2022/10/30 07:11:52;;;;;;;;;;;13.50;99.90;;;;;;5095258;28;19912;-76
2022/10/30 07:14:17;;;;;;;;;;;13.50;99.90;;;;;;5095082;28;19950;-76
2022/10/30 07:16:43;;;;;;;;;;;13.40;99.90;;;;;;5095055;28;19954;-77
2022/10/30 07:19:08;;;;;;;;;;;13.40;99.90;;;;;;5095024;28;19911;-77
2022/10/30 07:21:34;;;;;;;;;;;13.40;99.90;;;;;;5094950;28;19908;-75
2022/10/30 07:23:59;;;;;;;;;;;13.40;99.90;;;;;;5094978;28;19916;-77
2022/10/30 07:26:25;;;;;;;;;;;13.40;99.90;;;;;;5094928;28;19919;-76
2022/10/30 07:28:51;;;;;;;;;;;13.50;99.90;;;;;;5076605;28;19908;-77
2022/10/30 07:31:16;;;;;;;;;;;13.50;99.90;;;;;;5094800;28;19908;-77
2022/10/30 07:33:42;;;;;;;;;;;13.50;99.90;;;;;;5094871;28;19916;-76
2022/10/30 07:36:07;;;;;;;;;;;13.50;99.90;;;;;;5094819;28;19961;-76
2022/10/30 07:38:33;;;;;;;;;;;13.60;99.90;;;;;;5094577;28;19908;-76
2022/10/30 07:40:58;;;;;;;;;;;13.50;99.90;;;;;;5094778;28;19912;-77
2022/10/30 07:43:24;;;;;;;;;;;13.50;99.90;;;;;;5094574;28;19995;-76
2022/10/30 07:45:50;;;;;;;;;;;13.50;99.90;;;;;;5094349;28;19966;-77
2022/10/30 07:48:15;;;;;;;;;;;13.50;99.90;;;;;;5093886;28;20364;-77
2022/10/30 07:50:41;;;;;;;;;;;13.50;99.90;;;;;;5094431;28;19908;-77
2022/10/30 07:53:06;;;;;;;;;;;13.50;99.90;;;;;;5094401;28;19908;-75
2022/10/30 07:55:32;;;;;;;;;;;13.50;99.90;;;;;;5095130;28;19908;-76
2022/10/30 07:57:57;;;;;;;;;;;13.60;99.90;;;;;;5094433;28;19908;-75
2022/10/30 08:00:23;;;;;;;;;;;13.60;99.90;;;;;;5094225;28;19915;-75
2022/10/30 08:02:49;;;;;;;;;;;13.70;99.90;;;;;;5094240;28;20299;-77
2022/10/30 08:05:15;;;;;;;;;;;13.70;99.90;;;;;;5075933;28;20427;-76
2022/10/30 08:07:41;;;;;;;;;;;13.70;99.90;;;;;;5094092;28;20066;-75
2022/10/30 08:10:07;;;;;;;;;;;13.80;99.90;;;;;;5094136;28;19991;-76
2022/10/30 08:12:33;;;;;;;;;;;13.70;99.90;;;;;;5094032;28;19915;-76
2022/10/30 08:14:58;;;;;;;;;;;13.80;99.90;;;;;;5093984;28;20455;-77
2022/10/30 08:17:24;;;;;;;;;;;13.70;99.90;;;;;;5094000;28;19944;-76
2022/10/30 08:19:49;;;;;;;;;;;13.70;99.90;;;;;;5094126;28;19915;-76
2022/10/30 08:22:15;;;;;;;;;;;13.70;99.90;;;;;;5093829;28;20014;-76
2022/10/30 08:24:41;;;;;;;;;;;13.80;99.90;;;;;;5093815;28;20424;-77
2022/10/30 08:27:06;;;;;;;;;;;13.80;99.90;;;;;;5075668;28;19919;-77
2022/10/30 08:29:33;;;;;;;;;;;13.90;99.90;;;;;;5093838;28;20375;-75
2022/10/30 08:31:59;;;;;;;;;;;14.00;99.90;;;;;;5093798;28;19916;-75
2022/10/30 08:34:26;;;;;;;;;;;14.10;99.90;;;;;;5093774;28;19908;-75
2022/10/30 08:36:52;;;;;;;;;;;14.10;99.90;;;;;;5093751;28;20272;-76
2022/10/30 08:39:18;;;;;;;;;;;14.10;99.90;;;;;;5093715;28;19908;-75
2022/10/30 08:41:43;;;;;;;;;;;14.10;99.90;;;;;;5093788;28;19908;-76
2022/10/30 08:44:09;;;;;;;;;;;14.10;99.90;;;;;;5093628;28;19919;-76
2022/10/30 08:46:35;;;;;;;;;;;14.10;99.90;;;;;;5093909;28;20007;-77
2022/10/30 08:49:00;;;;;;;;;;;14.00;99.90;;;;;;5093785;28;19908;-75
2022/10/30 08:51:26;;;;;;;;;;;14.00;99.90;;;;;;5075418;28;20394;-77
2022/10/30 08:53:52;;;;;;;;;;;14.10;99.90;;;;;;5093967;28;19908;-77
2022/10/30 08:56:17;;;;;;;;;;;14.40;99.90;;;;;;5094345;28;19908;-75
2022/10/30 08:58:43;;;;;;;;;;;14.30;99.90;;;;;;5095808;28;20284;-75
2022/10/30 09:01:09;;;;;;;;;;;14.30;99.90;;;;;;5097620;28;19912;-77
2022/10/30 09:03:34;;;;;;;;;;;14.30;99.90;;;;;;5097587;28;19908;-77
2022/10/30 09:06:00;;;;;;;;;;;14.30;99.90;;;;;;5097708;28;20363;-76
2022/10/30 09:08:26;;;;;;;;;;;14.40;99.90;;;;;;5097565;28;19915;-75
2022/10/30 09:10:55;;;;;;;;;;;14.40;99.90;;;;;;5097423;28;20383;-76
2022/10/30 09:13:20;;;;;;;;;;;14.40;99.90;;;;;;5097920;28;19909;-76
2022/10/30 09:15:46;;;;;;;;;;;14.60;99.90;;;;;;5097390;28;19908;-77
2022/10/30 09:18:12;;;;;;;;;;;14.80;99.90;;;;;;5078830;28;19908;-76
2022/10/30 09:20:37;;;;;;;;;;;14.90;99.90;;;;;;5097154;28;19915;-77
2022/10/30 09:23:03;;;;;;;;;;;15.00;99.90;;;;;;5097210;28;20352;-76
2022/10/30 09:25:29;;;;;;;;;;;15.10;99.90;;;;;;5096791;28;19920;-77
2022/10/30 09:27:54;;;;;;;;;;;15.30;99.90;;;;;;5097141;28;19908;-76
2022/10/30 09:30:20;;;;;;;;;;;15.20;99.90;;;;;;5097266;28;19915;-77
2022/10/30 09:32:52;;;;;;;;;;;15.20;99.90;;;;;;5097020;28;19914;-77
2022/10/30 09:35:18;;;;;;;;;;;15.40;99.90;;;;;;5097071;28;19957;-77
2022/10/30 09:37:43;;;;;;;;;;;15.60;99.90;;;;;;5097197;28;19908;-77
2022/10/30 09:40:11;;;;;;;;;;;15.90;99.90;;;;;;5097301;28;20376;-77
2022/10/30 09:42:47;;;;;;;;;;;16.10;99.90;;;;;;5097008;28;20383;-77
2022/10/30 09:45:24;;;;;;;;;;;16.40;99.90;;;;;;5096884;28;19908;-77
2022/10/30 09:48:23;;;;;;;;;;;16.40;99.90;;;;;;5097230;28;19934;-77
2022/10/30 09:50:56;;;;;;;;;;;16.30;99.90;;;;;;5035464;28;20253;-77
2022/10/30 09:53:29;;;;;;;;;;;16.10;99.90;;;;;;5096841;28;19908;-77
2022/10/30 09:56:03;;;;;;;;;;;15.80;99.90;;;;;;5097479;28;19908;-76
2022/10/30 09:58:45;;;;;;;;;;;15.70;99.90;;;;;;5096555;28;19908;-77
2022/10/30 10:01:16;;;;;;;;;;;15.80;99.90;;;;;;5096614;28;19915;-77
2022/10/30 10:03:51;;;;;;;;;;;15.60;99.90;;;;;;5096442;28;19927;-77
2022/10/30 10:06:18;;;;;;;;;;;15.90;99.90;;;;;;5096600;28;19916;-77
2022/10/30 10:08:46;;;;;;;;;;;15.90;99.90;;;;;;5096332;28;19945;-77
2022/10/30 10:11:21;;;;;;;;;;;16.00;99.90;;;;;;5077247;28;20268;-78
2022/10/30 10:13:48;;;;;;;;;;;15.80;99.90;;;;;;5096234;28;19945;-77
2022/10/30 10:16:21;;;;;;;;;;;15.80;99.90;;;;;;5096190;28;19908;-77
2022/10/30 10:18:59;;;;;;;;;;;15.80;99.90;;;;;;5096267;28;20339;-78
2022/10/30 10:21:26;;;;;;;;;;;15.90;99.90;;;;;;5095981;28;20360;-77
2022/10/30 10:23:54;;;;;;;;;;;16.10;99.90;;;;;;5096346;28;20291;-77
2022/10/30 10:26:27;;;;;;;;;;;16.50;99.90;;;;;;5096319;28;19923;-78
2022/10/30 10:29:13;;;;;;;;;;;17.20;99.90;;;;;;5096078;28;20383;-78
2022/10/30 10:31:57;;;;;;;;;;;17.90;99.90;;;;;;5094949;28;19908;-78
2022/10/30 10:34:35;;;;;;;;;;;18.30;99.90;;;;;;5077638;28;20002;-77
2022/10/30 10:37:21;;;;;;;;;;;18.20;99.90;;;;;;5095809;28;20368;-78
2022/10/30 10:39:58;;;;;;;;;;;17.80;99.90;;;;;;5051867;28;20006;-78
2022/10/30 10:42:34;;;;;;;;;;;17.60;99.90;;;;;;5077037;28;19912;-77
2022/10/30 10:45:14;;;;;;;;;;;17.50;99.90;;;;;;5095228;28;19919;-76
2022/10/30 10:48:02;;;;;;;;;;;17.40;99.90;;;;;;5095820;28;20449;-78
2022/10/30 10:50:33;;;;;;;;;;;17.10;99.90;;;;;;5095721;28;19908;-77
2022/10/30 10:53:02;;;;;;;;;;;17.20;99.90;;;;;;5095500;28;19908;-77
2022/10/30 10:55:30;;;;;;;;;;;17.00;99.90;;;;;;5096239;28;19919;-78
2022/10/30 10:57:58;;;;;;;;;;;17.10;99.90;;;;;;5095385;28;19916;-78
2022/10/30 11:00:24;;;;;;;;;;;16.90;99.90;;;;;;5095344;28;19948;-78
2022/10/30 11:03:02;;;;;;;;;;;16.90;99.90;;;;;;5095309;28;19912;-78
2022/10/30 11:05:41;;;;;;;;;;;16.90;99.90;;;;;;5095335;28;19947;-78
2022/10/30 11:08:14;;;;;;;;;;;17.00;99.90;;;;;;5095386;28;19995;-78
2022/10/30 11:10:39;;;;;;;;;;;17.20;99.90;;;;;;5076873;28;20287;-78
2022/10/30 11:13:05;;;;;;;;;;;17.20;99.90;;;;;;5095123;28;19908;-77
2022/10/30 11:15:39;;;;;;;;;;;17.20;99.90;;;;;;5095081;28;19966;-78
2022/10/30 11:18:08;;;;;;;;;;;17.20;99.90;;;;;;5094977;28;19912;-77
2022/10/30 11:20:53;;;;;;;;;;;17.50;99.90;;;;;;5095119;28;19912;-77
2022/10/30 11:23:37;;;;;;;;;;;17.40;99.90;;;;;;5094993;28;19995;-77
2022/10/30 11:26:04;;;;;;;;;;;17.50;99.90;;;;;;5076340;28;19920;-76
2022/10/30 11:28:41;;;;;;;;;;;17.40;99.90;;;;;;5094971;28;19935;-79
2022/10/30 11:31:17;;;;;;;;;;;17.40;99.90;;;;;;5094814;28;19909;-78
2022/10/30 11:33:43;;;;;;;;;;;17.60;99.90;;;;;;5094707;28;20008;-78
2022/10/30 11:36:09;;;;;;;;;;;17.70;99.90;;;;;;5076524;28;19908;-77
2022/10/30 11:38:34;;;;;;;;;;;17.70;99.90;;;;;;5094630;28;19914;-79
2022/10/30 11:41:00;;;;;;;;;;;18.00;99.90;;;;;;5094667;28;19908;-79
2022/10/30 11:43:26;;;;;;;;;;;18.50;99.90;;;;;;5094642;28;19911;-78
2022/10/30 11:45:52;;;;;;;;;;;19.00;99.90;;;;;;5094390;28;20094;-77
2022/10/30 11:48:20;;;;;;;;;;;19.50;99.90;;;;;;5094676;28;19965;-78
2022/10/30 11:50:48;;;;;;;;;;;19.50;99.90;;;;;;5076226;28;19916;-79
2022/10/30 11:53:29;;;;;;;;;;;21.00;99.90;;;;;;5094547;28;20002;-79
2022/10/30 11:55:56;;;;;;;;;;;24.20;99.90;;;;;;5076543;28;19915;-79
2022/10/30 11:58:26;;;;;;;;;;;26.00;93.60;;;;;;5094546;28;19943;-79
2022/10/30 12:01:04;;;;;;;;;;;24.70;92.20;;;;;;5094580;28;19912;-79
2022/10/30 12:03:34;;;;;;;;;;;22.70;97.40;;;;;;5094313;28;20371;-79
2022/10/30 12:06:26;;;;;;;;;;;21.20;99.90;;;;;;5094120;28;19931;-78
2022/10/30 12:08:58;;;;;;;;;;;21.40;99.90;;;;;;5089277;28;19908;-79
2022/10/30 12:11:28;;;;;;;;;;;22.30;99.90;;;;;;5094117;28;19908;-80
2022/10/30 12:13:54;;;;;;;;;;;23.00;99.90;;;;;;5094123;28;19934;-80
2022/10/30 12:16:20;;;;;;;;;;;25.80;94.50;;;;;;5094515;28;19912;-79
2022/10/30 12:18:55;;;;;;;;;;;27.70;87.30;;;;;;5094228;28;19909;-78
2022/10/30 12:21:21;;;;;;;;;;;27.00;84.60;;;;;;5093932;28;19908;-80
2022/10/30 12:24:08;;;;;;;;;;;26.70;85.40;;;;;;5093746;28;20049;-80
2022/10/30 12:26:34;;;;;;;;;;;26.40;84.40;;;;;;5094204;28;19912;-81
2022/10/30 12:29:00;;;;;;;;;;;;;;;;;;5093837;28;19912;-79
2022/10/30 12:31:26;;;;;;;;;;;;;;;;;;5093800;28;19915;-78
2022/10/30 12:33:52;;;;;;;;;;;;;;;;;;5093370;28;19915;-79
2022/10/30 12:36:18;;;;;;;;;;;;;;;;;;5093827;28;19915;-79
2022/10/30 12:38:44;;;;;;;;;;;;;;;;;;5075455;28;19908;-80
2022/10/30 12:41:10;;;;;;;;;;;;;;;;;;5093733;28;19912;-79
2022/10/30 12:43:36;;;;;;;;;;;;;;;;;;5093736;28;19908;-80
2022/10/30 12:46:02;;;;;;;;;;;;;;;;;;5093665;28;19912;-79
2022/10/30 12:48:28;;;;;;;;;;;;;;;;;;5093847;28;19908;-78
2022/10/30 12:50:55;;;;;;;;;;;;;;;;;;5093620;28;19908;-79
2022/10/30 12:53:21;;;;;;;;;;;;;;;;;;5093554;28;19908;-80
2022/10/30 12:55:47;;;;;;;;;;;;;;;;;;5076019;28;20398;-80
2022/10/30 12:58:13;;;;;;;;;;;;;;;;;;5093902;28;19908;-80
2022/10/30 13:00:39;;;;;;;;;;;;;;;;;;5093810;28;19909;-79
2022/10/30 13:03:05;;;;;;;;;;;;;;;;;;5093542;28;19915;-80
2022/10/30 13:05:31;;;;;;;;;;;;;;;;;;5093467;28;19951;-79
2022/10/30 13:07:57;;;;;;;;;;;;;;;;;;5093498;28;19981;-79
2022/10/30 13:10:23;;;;;;;;;;;;;;;;;;5093468;28;20268;-80
2022/10/30 13:12:51;;;;;;;;;;;;;;;;;;5093646;28;20368;-81
2022/10/30 13:15:17;;;;;;;;;;;;;;;;;;5093518;28;19908;-80
2022/10/30 13:17:43;;;;;;;;;;;;;;;;;;5093608;28;19908;-80
2022/10/30 13:20:09;;;;;;;;;;;;;;;;;;5093348;28;19908;-80
2022/10/30 13:22:35;;;;;;;;;;;;;;;;;;5093473;28;19915;-79
2022/10/30 13:25:00;;;;;;;;;;;;;;;;;;5093135;28;20307;-79
2022/10/30 13:27:26;;;;;;;;;;;;;;;;;;5093255;28;19912;-80
2022/10/30 13:29:52;;;;;;;;;;;;;;;;;;5093717;28;19908;-79
2022/10/30 13:32:18;;;;;;;;;;;;;;;;;;5093283;28;19915;-79
2022/10/30 13:34:44;;;;;;;;;;;;;;;;;;5093317;28;19908;-80
2022/10/30 13:37:10;;;;;;;;;;;;;;;;;;5093201;28;20061;-79
2022/10/30 13:39:36;;;;;;;;;;;;;;;;;;5093186;28;20336;-80
2022/10/30 13:42:02;;;;;;;;;;;;;;;;;;5093396;28;19909;-80
2022/10/30 13:44:28;;;;;;;;;;;;;;;;;;5093247;28;19994;-79
2022/10/30 13:46:54;;;;;;;;;;;;;;;;;;5096976;28;19962;-79
2022/10/30 13:49:20;;;;;;;;;;;;;;;;;;5097032;28;19912;-78
2022/10/30 13:51:46;;;;;;;;;;;;;;;;;;5097016;28;20313;-80
2022/10/30 13:54:11;;;;;;;;;;;;;;;;;;5097286;28;20388;-79
2022/10/30 13:56:37;;;;;;;;;;;;;;;;;;5097437;28;19909;-79
2022/10/30 13:59:03;;;;;;;;;;;;;;;;;;5096926;28;19916;-80
2022/10/30 14:01:29;;;;;;;;;;;;;;;;;;5096787;28;19908;-78
2022/10/30 14:03:55;;;;;;;;;;;;;;;;;;5096539;28;19973;-79
2022/10/30 14:06:21;;;;;;;;;;;;;;;;;;5096784;28;20392;-80
2022/10/30 14:08:47;;;;;;;;;;;;;;;;;;5096465;28;19985;-80
2022/10/30 14:11:13;;;;;;;;;;;;;;;;;;5096439;28;19908;-80
2022/10/30 14:13:39;;;;;;;;;;;;;;;;;;5096346;28;20041;-80
2022/10/30 14:16:05;;;;;;;;;;;;;;;;;;5096348;28;19915;-79
2022/10/30 14:18:31;;;;;;;;;;;;;;;;;;5096470;28;19908;-80
2022/10/30 14:20:57;;;;;;;;;;;;;;;;;;5096147;28;19940;-80
2022/10/30 14:23:23;;;;;;;;;;;;;;;;;;5096640;28;19908;-80
2022/10/30 14:25:49;;;;;;;;;;;;;;;;;;5095630;28;19924;-80
2022/10/30 14:28:14;;;;;;;;;;;;;;;;;;5096103;28;19908;-79
2022/10/30 14:30:40;;;;;;;;;;;;;;;;;;5096059;28;20013;-80
2022/10/30 14:33:06;;;;;;;;;;;;;;;;;;5096042;28;19908;-79
2022/10/30 14:35:32;;;;;;;;;;;;;;;;;;5095969;28;19908;-79
2022/10/30 14:37:58;;;;;;;;;;;;;;;;;;5096061;28;19908;-79